Aviation Digital Data Service (ADDS)

Output produced by METARs form (0009 UTC 02 April 2015)
found at http://aviationweather.gov/adds/metars/
 
KSAN 012340Z 0200/0306 29008KT P6SM SKC 
     FM020200 VRB04KT P6SM FEW025 
     FM021000 14007KT P6SM BKN025 
     FM021500 15007KT P6SM SCT030 SCT200 
     FM021900 28009KT P6SM SCT250 
     FM030200 VRB04KT P6SM SCT250